createdAt,value
2018-03-21T00:02:02.960Z,74.77
2018-03-21T00:04:29.427Z,73.83
2018-03-21T00:06:55.844Z,74.31
2018-03-21T00:09:22.308Z,74.47
2018-03-21T00:11:48.756Z,73.64
2018-03-21T00:14:15.140Z,75.44
2018-03-21T00:16:42.455Z,75.22
2018-03-21T00:19:09.025Z,75.24
2018-03-21T00:21:35.384Z,74.93
2018-03-21T00:24:01.753Z,73.72
2018-03-21T00:26:28.154Z,73.73
2018-03-21T00:28:54.565Z,75.28
2018-03-21T00:31:20.954Z,74.13
2018-03-21T00:33:47.312Z,73.91
2018-03-21T00:36:13.710Z,74.45
2018-03-21T00:38:40.254Z,74.23
2018-03-21T00:41:06.625Z,74.17
2018-03-21T00:43:32.972Z,74.35
2018-03-21T00:45:59.393Z,74.14
2018-03-21T00:48:25.837Z,74.23
2018-03-21T00:50:52.249Z,74.00
2018-03-21T00:53:18.599Z,74.20
2018-03-21T00:55:45.081Z,73.71
2018-03-21T00:58:11.454Z,75.34
2018-03-21T01:00:37.937Z,74.33
2018-03-21T01:03:04.349Z,74.47
2018-03-21T01:05:30.725Z,74.42
2018-03-21T01:07:57.173Z,74.23
2018-03-21T01:10:23.551Z,74.61
2018-03-21T01:12:49.963Z,75.31
2018-03-21T01:15:16.403Z,74.78
2018-03-21T01:17:42.818Z,74.49
2018-03-21T01:20:09.250Z,74.29
2018-03-21T01:22:35.693Z,74.70
2018-03-21T01:25:02.066Z,74.50
2018-03-21T01:27:28.521Z,74.51
2018-03-21T01:29:54.885Z,75.06
2018-03-21T01:32:21.299Z,74.83
2018-03-21T01:34:47.701Z,74.09
2018-03-21T01:37:14.152Z,74.30
2018-03-21T01:39:40.571Z,74.06
2018-03-21T01:42:06.989Z,75.36
2018-03-21T01:44:33.406Z,75.81
2018-03-21T01:46:59.860Z,75.74
2018-03-21T01:49:26.216Z,74.88
2018-03-21T01:51:52.596Z,73.81
2018-03-21T01:54:18.989Z,74.25
2018-03-21T01:56:45.396Z,75.07
2018-03-21T01:59:11.902Z,75.10
2018-03-21T02:01:38.325Z,74.70
2018-03-21T02:04:04.721Z,74.35
2018-03-21T02:06:31.082Z,74.81
2018-03-21T02:08:57.477Z,76.65
2018-03-21T02:11:23.930Z,77.12
2018-03-21T02:13:50.321Z,75.60
2018-03-21T02:16:16.752Z,74.77
2018-03-21T02:18:43.136Z,75.51
2018-03-21T02:21:09.497Z,75.31
2018-03-21T02:23:35.894Z,75.29
2018-03-21T02:26:02.289Z,75.23
2018-03-21T02:28:28.701Z,75.09
2018-03-21T02:30:55.141Z,74.94
2018-03-21T02:33:21.604Z,73.23
2018-03-21T02:35:48.050Z,73.62
2018-03-21T02:38:14.405Z,74.28
2018-03-21T02:40:40.791Z,73.37
2018-03-21T02:43:07.165Z,73.90
2018-03-21T02:45:33.619Z,74.18
2018-03-21T02:48:00.041Z,74.97
2018-03-21T02:50:26.521Z,75.32
2018-03-21T02:52:52.966Z,74.86
2018-03-21T02:55:19.329Z,74.42
2018-03-21T02:57:45.862Z,75.24
2018-03-21T03:00:12.372Z,74.78
2018-03-21T03:02:38.782Z,75.34
2018-03-21T03:05:05.175Z,75.27
2018-03-21T03:07:31.514Z,74.69
2018-03-21T03:09:57.957Z,74.67
2018-03-21T03:12:24.362Z,76.21
2018-03-21T03:14:50.790Z,74.56
2018-03-21T03:17:17.699Z,74.77
2018-03-21T03:19:44.333Z,75.29
2018-03-21T03:22:10.717Z,75.08
2018-03-21T03:24:37.093Z,76.48
2018-03-21T03:27:03.505Z,75.94
2018-03-21T03:29:29.918Z,75.11
2018-03-21T03:31:56.342Z,74.76
2018-03-21T03:34:22.763Z,74.33
2018-03-21T03:36:49.214Z,74.40
2018-03-21T03:39:15.697Z,74.38
2018-03-21T03:41:42.154Z,74.29
2018-03-21T03:44:08.537Z,75.53
2018-03-21T03:46:34.966Z,76.26
2018-03-21T03:49:01.401Z,74.52
2018-03-21T03:51:27.814Z,74.98
2018-03-21T03:53:59.258Z,75.91
2018-03-21T03:56:25.709Z,76.54
2018-03-21T03:58:52.098Z,75.70
2018-03-21T04:01:18.484Z,76.74
2018-03-21T04:03:44.917Z,76.65
2018-03-21T04:06:11.290Z,76.25
2018-03-21T04:08:37.682Z,76.13
2018-03-21T04:11:04.206Z,76.84
2018-03-21T04:13:30.654Z,78.35
2018-03-21T04:15:57.195Z,76.56
2018-03-21T04:18:23.541Z,75.75
2018-03-21T04:20:49.952Z,75.36
2018-03-21T04:23:16.412Z,75.12
2018-03-21T04:25:42.795Z,76.85
2018-03-21T04:28:09.194Z,76.43
2018-03-21T04:30:35.572Z,75.61
2018-03-21T04:33:02.016Z,76.56
2018-03-21T04:35:28.434Z,76.37
2018-03-21T04:37:56.607Z,75.86
2018-03-21T04:40:23.059Z,77.20
2018-03-21T04:42:49.522Z,77.11
2018-03-21T04:45:15.954Z,75.22
2018-03-21T04:47:42.407Z,74.93
2018-03-21T04:50:08.893Z,76.79
2018-03-21T04:52:35.323Z,75.46
2018-03-21T04:55:01.814Z,76.47
2018-03-21T04:57:28.237Z,77.19
2018-03-21T04:59:54.684Z,77.31
2018-03-21T05:02:21.181Z,77.55
2018-03-21T05:04:47.574Z,79.21
2018-03-21T05:07:13.970Z,80.08
2018-03-21T05:09:40.361Z,80.72
2018-03-21T05:12:06.868Z,78.19
2018-03-21T05:14:33.254Z,77.99
2018-03-21T05:16:59.703Z,77.67
2018-03-21T05:19:26.053Z,77.02
2018-03-21T05:21:52.467Z,76.83
2018-03-21T05:24:18.889Z,77.31
2018-03-21T05:26:45.313Z,77.41
2018-03-21T05:29:11.789Z,76.78
2018-03-21T05:31:38.281Z,79.55
2018-03-21T05:34:04.654Z,77.70
2018-03-21T05:36:30.993Z,78.34
2018-03-21T05:38:57.382Z,77.83
2018-03-21T05:41:23.743Z,78.01
2018-03-21T05:43:50.152Z,79.30
2018-03-21T05:46:16.499Z,79.88
2018-03-21T05:48:42.899Z,78.91
2018-03-21T05:51:09.359Z,79.88
2018-03-21T05:53:35.817Z,78.18
2018-03-21T05:56:02.249Z,76.27
2018-03-21T05:58:28.601Z,77.49
2018-03-21T06:00:54.991Z,77.83
2018-03-21T06:03:22.273Z,78.99
2018-03-21T06:05:49.005Z,78.50
2018-03-21T06:08:15.370Z,78.50
2018-03-21T06:10:41.781Z,77.84
2018-03-21T06:13:08.143Z,77.92
2018-03-21T06:15:34.575Z,78.09
2018-03-21T06:18:01.476Z,78.15
2018-03-21T06:20:28.278Z,77.61
2018-03-21T06:22:54.713Z,77.41
2018-03-21T06:25:21.170Z,78.33
2018-03-21T06:27:47.812Z,78.75
2018-03-21T06:30:17.608Z,78.56
2018-03-21T06:32:45.472Z,79.38
2018-03-21T06:35:11.859Z,79.30
2018-03-21T06:37:38.267Z,79.43
2018-03-21T06:40:04.659Z,80.05
2018-03-21T06:42:32.119Z,79.47
2018-03-21T06:44:58.679Z,79.72
2018-03-21T06:47:25.088Z,79.15
2018-03-21T06:49:51.478Z,79.04
2018-03-21T06:52:17.996Z,80.40
2018-03-21T06:54:44.363Z,80.03
2018-03-21T06:57:10.736Z,81.16
2018-03-21T06:59:37.125Z,80.01
2018-03-21T07:02:03.570Z,79.25
2018-03-21T07:04:30.860Z,79.05
2018-03-21T07:06:57.330Z,79.06
2018-03-21T07:09:23.675Z,80.74
2018-03-21T07:11:50.232Z,80.28
2018-03-21T07:14:29.169Z,79.25
2018-03-21T07:16:57.691Z,78.78
2018-03-21T07:19:24.729Z,78.57
2018-03-21T07:21:51.673Z,78.29
2018-03-21T07:24:23.377Z,78.18
2018-03-21T07:26:53.800Z,77.99
2018-03-21T07:29:20.577Z,78.60
2018-03-21T07:31:49.346Z,78.68
2018-03-21T07:34:18.382Z,77.54
2018-03-21T07:36:46.363Z,77.98
2018-03-21T07:39:12.993Z,78.51
2018-03-21T07:41:39.502Z,78.51
2018-03-21T07:44:06.072Z,77.96
2018-03-21T07:46:32.529Z,78.77
2018-03-21T07:48:59.005Z,78.70
2018-03-21T07:51:25.414Z,77.58
2018-03-21T07:53:51.841Z,76.91
2018-03-21T07:56:18.250Z,76.64
2018-03-21T07:58:44.690Z,76.97
2018-03-21T08:01:11.291Z,77.12
2018-03-21T08:03:37.705Z,77.15
2018-03-21T08:06:04.137Z,77.27
2018-03-21T08:08:30.546Z,76.29
2018-03-21T08:10:57.412Z,76.25
2018-03-21T08:13:23.869Z,75.11
2018-03-21T08:15:50.303Z,74.74
2018-03-21T08:18:16.634Z,74.62
2018-03-21T08:20:43.146Z,75.06
2018-03-21T08:23:09.544Z,75.92
2018-03-21T08:25:36.009Z,76.61
2018-03-21T08:28:02.558Z,76.79
2018-03-21T08:30:28.957Z,76.56
2018-03-21T08:32:55.435Z,76.07
2018-03-21T08:35:21.825Z,75.65
2018-03-21T08:37:48.246Z,75.09
2018-03-21T08:40:14.829Z,75.51
2018-03-21T08:42:41.246Z,75.53
2018-03-21T08:45:07.621Z,75.03
2018-03-21T08:47:33.987Z,74.24
2018-03-21T08:50:00.362Z,73.85
2018-03-21T08:52:26.840Z,75.07
2018-03-21T08:54:53.297Z,75.29
2018-03-21T08:57:19.673Z,74.71
2018-03-21T08:59:46.122Z,74.83
2018-03-21T09:02:12.548Z,74.53
2018-03-21T09:04:38.967Z,74.59
2018-03-21T09:07:05.447Z,74.43
2018-03-21T09:09:31.838Z,73.47
2018-03-21T09:11:58.253Z,73.27
2018-03-21T09:14:24.777Z,72.97
2018-03-21T09:16:51.271Z,72.51
2018-03-21T09:19:17.756Z,72.26
2018-03-21T09:21:44.139Z,71.82
2018-03-21T09:24:10.537Z,71.15
2018-03-21T09:26:37.067Z,71.58
2018-03-21T09:29:03.489Z,70.75
2018-03-21T09:31:29.866Z,71.45
2018-03-21T09:33:56.339Z,71.32
2018-03-21T09:36:22.819Z,71.00
2018-03-21T09:38:49.213Z,70.67
2018-03-21T09:41:15.626Z,72.17
2018-03-21T09:43:42.033Z,71.91
2018-03-21T09:46:08.453Z,72.34
2018-03-21T09:48:34.822Z,72.05
2018-03-21T09:51:01.281Z,72.90
2018-03-21T09:53:27.687Z,72.83
2018-03-21T09:55:54.067Z,72.08
2018-03-21T09:58:20.442Z,71.69
2018-03-21T10:00:46.898Z,71.23
2018-03-21T10:03:13.294Z,71.49
2018-03-21T10:05:39.784Z,72.36
2018-03-21T10:08:06.255Z,71.41
2018-03-21T10:10:32.726Z,71.71
2018-03-21T10:12:59.083Z,71.98
2018-03-21T10:15:25.510Z,70.93
2018-03-21T10:17:51.897Z,71.00
2018-03-21T10:20:18.256Z,70.01
2018-03-21T10:22:45.347Z,70.33
2018-03-21T10:25:11.979Z,70.09
2018-03-21T10:27:38.425Z,70.00
2018-03-21T10:30:04.910Z,69.65
2018-03-21T10:32:31.592Z,69.27
2018-03-21T10:34:58.001Z,69.77
2018-03-21T10:37:24.482Z,69.62
2018-03-21T10:39:50.890Z,70.06
2018-03-21T10:42:17.359Z,69.61
2018-03-21T10:44:43.842Z,69.76
2018-03-21T10:47:11.201Z,68.57
2018-03-21T10:49:37.602Z,68.52
2018-03-21T10:52:04.005Z,68.55
2018-03-21T10:54:30.421Z,69.41
2018-03-21T10:56:56.845Z,69.69
2018-03-21T10:59:23.250Z,70.69
2018-03-21T11:01:55.754Z,70.02
2018-03-21T11:04:22.193Z,70.27
2018-03-21T11:06:48.605Z,70.03
2018-03-21T11:09:14.992Z,70.85
2018-03-21T11:11:41.431Z,72.61
2018-03-21T11:14:07.854Z,72.82
2018-03-21T11:16:34.225Z,72.93
2018-03-21T11:19:00.639Z,72.74
2018-03-21T11:21:27.310Z,72.91
2018-03-21T11:23:53.725Z,73.14
2018-03-21T11:26:20.168Z,72.51
2018-03-21T11:28:46.660Z,72.63
2018-03-21T11:31:13.065Z,72.89
2018-03-21T11:33:39.473Z,73.32
2018-03-21T11:36:05.873Z,73.98
2018-03-21T11:38:33.530Z,74.63
2018-03-21T11:41:00.218Z,74.81
2018-03-21T11:43:26.973Z,74.51
2018-03-21T11:45:53.667Z,74.45
2018-03-21T11:48:20.121Z,75.25
2018-03-21T11:50:46.654Z,75.22
2018-03-21T11:53:13.050Z,75.92
2018-03-21T11:55:39.466Z,76.33
2018-03-21T11:58:05.870Z,75.43
2018-03-21T12:00:32.363Z,75.65
2018-03-21T12:02:58.841Z,76.31
2018-03-21T12:05:25.258Z,75.54
2018-03-21T12:07:51.681Z,75.49
2018-03-21T12:10:18.165Z,74.99
2018-03-21T12:12:44.791Z,75.93
2018-03-21T12:15:11.214Z,75.96
2018-03-21T12:17:37.602Z,76.74
2018-03-21T12:20:04.041Z,76.15
2018-03-21T12:22:30.510Z,76.56
2018-03-21T12:24:56.932Z,75.10
2018-03-21T12:27:23.426Z,75.38
2018-03-21T12:29:49.837Z,76.08
2018-03-21T12:32:16.383Z,75.76
2018-03-21T12:34:42.781Z,75.50
2018-03-21T12:37:09.233Z,74.60
2018-03-21T12:39:35.784Z,75.71
2018-03-21T12:42:02.394Z,75.19
2018-03-21T12:44:28.784Z,76.07
2018-03-21T12:46:55.314Z,75.96
2018-03-21T12:49:21.718Z,76.69
2018-03-21T12:51:48.129Z,76.02
2018-03-21T12:54:14.530Z,75.75
2018-03-21T12:56:41.000Z,75.67
2018-03-21T12:59:07.550Z,75.84
2018-03-21T13:01:34.019Z,75.42
2018-03-21T13:04:00.492Z,75.34
2018-03-21T13:06:26.906Z,75.26
2018-03-21T13:08:53.378Z,75.14
2018-03-21T13:11:19.795Z,75.28
2018-03-21T13:13:46.489Z,75.05
2018-03-21T13:16:12.892Z,75.95
2018-03-21T13:18:39.378Z,74.11
2018-03-21T13:21:05.793Z,74.41
2018-03-21T13:23:32.318Z,74.17
2018-03-21T13:25:58.790Z,73.38
2018-03-21T13:28:25.213Z,73.17
2018-03-21T13:30:51.746Z,71.85
2018-03-21T13:33:18.203Z,73.42
2018-03-21T13:35:44.649Z,71.82
2018-03-21T13:38:11.134Z,72.25
2018-03-21T13:40:37.626Z,71.43
2018-03-21T13:43:04.156Z,73.32
2018-03-21T13:45:30.629Z,72.31
2018-03-21T13:47:57.113Z,72.20
2018-03-21T13:50:23.701Z,71.69
2018-03-21T13:52:50.342Z,71.50
2018-03-21T13:55:16.899Z,71.69
2018-03-21T13:57:43.282Z,70.42
2018-03-21T14:00:09.690Z,70.05
2018-03-21T14:02:36.158Z,69.87
2018-03-21T14:05:02.654Z,70.04
2018-03-21T14:07:29.237Z,69.84
2018-03-21T14:09:55.765Z,70.52
2018-03-21T14:12:22.266Z,70.34
2018-03-21T14:14:48.678Z,72.05
2018-03-21T14:17:15.066Z,73.20
2018-03-21T14:19:41.470Z,73.00
2018-03-21T14:22:07.874Z,72.15
2018-03-21T14:24:37.318Z,71.67
2018-03-21T14:27:04.298Z,72.56
2018-03-21T14:29:30.870Z,72.33
2018-03-21T14:31:57.446Z,72.46
2018-03-21T14:34:23.953Z,70.65
2018-03-21T14:36:50.391Z,69.60
2018-03-21T14:39:16.851Z,71.63
2018-03-21T14:41:43.290Z,72.05
2018-03-21T14:44:09.686Z,70.72
2018-03-21T14:46:36.174Z,71.65
2018-03-21T14:49:02.587Z,72.50
2018-03-21T14:51:29.006Z,72.34
2018-03-21T14:53:55.502Z,72.16
2018-03-21T14:56:22.046Z,71.46
2018-03-21T14:58:48.488Z,72.01
2018-03-21T15:01:14.903Z,72.00
2018-03-21T15:03:41.524Z,70.85
2018-03-21T15:06:07.933Z,70.38
2018-03-21T15:08:34.358Z,71.77
2018-03-21T15:11:00.795Z,70.70
2018-03-21T15:13:27.190Z,71.67
2018-03-21T15:15:53.567Z,72.43
2018-03-21T15:18:20.021Z,71.18
2018-03-21T15:20:46.528Z,71.55
2018-03-21T15:23:12.973Z,71.90
2018-03-21T15:25:39.445Z,70.98
2018-03-21T15:28:05.999Z,70.69
2018-03-21T15:30:32.458Z,70.64
2018-03-21T15:32:59.090Z,70.72
2018-03-21T15:35:25.558Z,70.68
2018-03-21T15:37:52.066Z,70.55
2018-03-21T15:40:18.450Z,71.33
2018-03-21T15:42:44.881Z,70.36
2018-03-21T15:45:11.344Z,70.57
2018-03-21T15:47:37.816Z,70.65
2018-03-21T15:50:04.346Z,70.79
2018-03-21T15:52:30.723Z,70.69
2018-03-21T15:54:57.158Z,70.48
2018-03-21T15:57:23.622Z,70.54
2018-03-21T15:59:50.354Z,70.31
2018-03-21T16:02:16.832Z,70.76
2018-03-21T16:04:43.255Z,71.19
2018-03-21T16:07:09.781Z,72.38
2018-03-21T16:09:36.161Z,71.15
2018-03-21T16:12:02.538Z,71.25
2018-03-21T16:14:29.029Z,71.79
2018-03-21T16:16:55.546Z,71.54
2018-03-21T16:19:21.954Z,71.52
2018-03-21T16:21:48.306Z,71.75
2018-03-21T16:24:14.882Z,73.79
2018-03-21T16:26:41.300Z,72.79
2018-03-21T16:29:07.734Z,71.71
2018-03-21T16:31:34.185Z,71.69
2018-03-21T16:34:00.694Z,72.27
2018-03-21T16:36:27.153Z,71.72
2018-03-21T16:38:53.574Z,71.35
2018-03-21T16:41:20.017Z,72.22
2018-03-21T16:43:46.355Z,71.68
2018-03-21T16:46:12.801Z,71.71
2018-03-21T16:48:39.233Z,72.70
2018-03-21T16:51:05.686Z,71.81
2018-03-21T16:53:32.301Z,71.77
2018-03-21T16:55:58.706Z,71.58
2018-03-21T16:58:25.181Z,71.86
2018-03-21T17:00:51.650Z,72.13
2018-03-21T17:03:18.135Z,72.15
2018-03-21T17:05:44.543Z,71.74
2018-03-21T17:08:10.996Z,72.00
2018-03-21T17:10:37.462Z,73.52
2018-03-21T17:13:03.898Z,73.75
2018-03-21T17:15:30.398Z,72.85
2018-03-21T17:17:56.841Z,73.27
2018-03-21T17:20:23.250Z,72.74
2018-03-21T17:22:49.634Z,72.74
2018-03-21T17:25:16.074Z,72.60
2018-03-21T17:27:42.579Z,72.99
2018-03-21T17:30:09.054Z,72.93
2018-03-21T17:32:35.407Z,72.98
2018-03-21T17:35:01.798Z,72.36
2018-03-21T17:37:28.195Z,72.33
2018-03-21T17:39:54.730Z,72.36
2018-03-21T17:42:21.217Z,72.44
2018-03-21T17:44:47.681Z,72.62
2018-03-21T17:47:14.091Z,72.90
2018-03-21T17:49:40.489Z,73.86
2018-03-21T17:52:06.906Z,73.31
2018-03-21T17:54:33.387Z,73.48
2018-03-21T17:56:59.900Z,72.65
2018-03-21T17:59:26.259Z,73.45
2018-03-21T18:01:52.694Z,72.67
2018-03-21T18:04:19.152Z,72.57
2018-03-21T18:06:45.626Z,74.02
2018-03-21T18:09:12.053Z,73.37
2018-03-21T18:11:38.445Z,72.85
2018-03-21T18:14:04.881Z,72.94
2018-03-21T18:16:31.317Z,73.37
2018-03-21T18:18:57.748Z,73.72
2018-03-21T18:21:24.159Z,74.14
2018-03-21T18:23:50.633Z,75.33
2018-03-21T18:26:17.026Z,75.53
2018-03-21T18:28:43.533Z,74.71
2018-03-21T18:31:10.322Z,73.81
2018-03-21T18:33:36.706Z,73.80
2018-03-21T18:36:03.139Z,74.37
2018-03-21T18:38:29.649Z,75.87
2018-03-21T18:40:56.090Z,75.85
2018-03-21T18:43:22.636Z,77.35
2018-03-21T18:45:49.062Z,76.43
2018-03-21T18:48:15.453Z,77.73
2018-03-21T18:50:41.841Z,76.65
2018-03-21T18:53:08.302Z,76.66
2018-03-21T18:55:34.714Z,76.61
2018-03-21T18:58:01.213Z,77.71
2018-03-21T19:00:27.622Z,77.30
2018-03-21T19:02:54.031Z,77.16
2018-03-21T19:05:20.414Z,77.33
2018-03-21T19:07:46.891Z,73.92
2018-03-21T19:10:13.335Z,76.38
2018-03-21T19:12:39.722Z,73.55
2018-03-21T19:15:06.187Z,75.36
2018-03-21T19:17:32.719Z,75.01
2018-03-21T19:19:59.152Z,75.25
2018-03-21T19:22:25.589Z,75.85
2018-03-21T19:24:52.082Z,73.98
2018-03-21T19:27:18.497Z,69.03
2018-03-21T19:29:44.904Z,75.23
2018-03-21T19:32:11.369Z,75.42
2018-03-21T19:34:37.797Z,75.46
2018-03-21T19:37:04.460Z,72.19
2018-03-21T19:39:30.862Z,70.87
2018-03-21T19:41:57.294Z,73.45
2018-03-21T19:44:23.940Z,72.06
2018-03-21T19:46:50.507Z,73.54
2018-03-21T19:49:16.930Z,71.17
2018-03-21T19:51:43.599Z,73.48
2018-03-21T19:54:10.447Z,69.41
2018-03-21T19:56:36.853Z,67.56
2018-03-21T19:59:03.351Z,73.27
2018-03-21T20:01:32.210Z,71.53
2018-03-21T20:03:58.758Z,75.82
2018-03-21T20:06:25.146Z,68.77
2018-03-21T20:08:51.576Z,74.29
2018-03-21T20:11:18.165Z,69.58
2018-03-21T20:13:44.882Z,71.83
2018-03-21T20:16:11.368Z,71.48
2018-03-21T20:18:37.715Z,67.91
2018-03-21T20:21:04.075Z,73.15
2018-03-21T20:23:30.554Z,74.47
2018-03-21T20:25:58.793Z,69.93
2018-03-21T20:28:25.370Z,73.25
2018-03-21T20:30:51.869Z,69.51
2018-03-21T20:33:18.302Z,69.53
2018-03-21T20:35:44.713Z,71.79
2018-03-21T20:38:11.216Z,70.48
2018-03-21T20:40:37.747Z,70.59
2018-03-21T20:43:04.182Z,73.42
2018-03-21T20:45:30.641Z,69.14
2018-03-21T20:47:57.142Z,76.02
2018-03-21T20:50:23.575Z,70.56
2018-03-21T20:52:50.014Z,68.67
2018-03-21T20:55:16.462Z,69.55
2018-03-21T20:57:42.882Z,68.88
2018-03-21T21:00:09.254Z,71.63
2018-03-21T21:02:35.698Z,73.11
2018-03-21T21:05:02.101Z,73.06
2018-03-21T21:07:28.643Z,73.77
2018-03-21T21:09:55.218Z,75.65
2018-03-21T21:12:21.600Z,71.27
2018-03-21T21:14:48.322Z,72.47
2018-03-21T21:17:14.725Z,74.19
2018-03-21T21:19:41.353Z,72.12
2018-03-21T21:22:07.897Z,75.14
2018-03-21T21:24:34.318Z,71.95
2018-03-21T21:27:00.800Z,72.22
2018-03-21T21:29:27.269Z,74.58
2018-03-21T21:31:53.660Z,73.80
2018-03-21T21:34:20.193Z,68.49
2018-03-21T21:36:46.669Z,67.24
2018-03-21T21:39:13.079Z,70.25
2018-03-21T21:41:39.597Z,67.86
2018-03-21T21:44:06.024Z,70.05
2018-03-21T21:46:32.504Z,68.52
2018-03-21T21:48:58.930Z,71.53
2018-03-21T21:51:25.383Z,69.45
2018-03-21T21:53:51.761Z,72.36
2018-03-21T21:56:18.162Z,69.73
2018-03-21T21:58:44.614Z,67.37
2018-03-21T22:01:10.972Z,67.85
2018-03-21T22:03:37.393Z,73.98
2018-03-21T22:06:03.806Z,75.33
2018-03-21T22:08:30.271Z,70.52
2018-03-21T22:10:56.614Z,74.16
2018-03-21T22:13:22.981Z,74.62
2018-03-21T22:15:49.471Z,70.41
2018-03-21T22:18:15.869Z,67.40
2018-03-21T22:20:42.256Z,71.17
2018-03-21T22:23:08.609Z,73.30
2018-03-21T22:25:34.997Z,70.36
2018-03-21T22:28:01.464Z,73.21
2018-03-21T22:30:27.854Z,72.16
2018-03-21T22:32:54.303Z,69.10
2018-03-21T22:35:20.773Z,71.42
2018-03-21T22:37:47.141Z,70.46
2018-03-21T22:40:13.521Z,69.98
2018-03-21T22:42:39.941Z,63.37
2018-03-21T22:45:06.397Z,67.53
2018-03-21T22:47:32.905Z,71.80
2018-03-21T22:49:59.285Z,65.72
2018-03-21T22:52:25.717Z,74.73
2018-03-21T22:54:52.150Z,74.68
2018-03-21T22:57:18.650Z,72.53
2018-03-21T22:59:45.053Z,67.85
2018-03-21T23:02:11.510Z,71.26
2018-03-21T23:04:37.930Z,69.36
2018-03-21T23:07:04.277Z,73.23
2018-03-21T23:09:30.644Z,72.51
2018-03-21T23:11:56.997Z,70.61
2018-03-21T23:14:23.427Z,68.70
2018-03-21T23:16:49.833Z,75.46
2018-03-21T23:19:16.237Z,73.69
2018-03-21T23:21:42.598Z,74.67
2018-03-21T23:24:09.001Z,75.23
2018-03-21T23:26:35.682Z,69.74
2018-03-21T23:29:02.037Z,68.81
2018-03-21T23:31:28.450Z,70.46
2018-03-21T23:33:54.846Z,68.32
2018-03-21T23:36:21.268Z,66.66
2018-03-21T23:38:47.677Z,74.48
2018-03-21T23:41:14.178Z,73.67
2018-03-21T23:43:40.572Z,72.85
2018-03-21T23:46:06.992Z,72.63
2018-03-21T23:48:34.230Z,67.22
2018-03-21T23:51:00.767Z,67.57
2018-03-21T23:53:27.239Z,66.71
2018-03-21T23:55:53.921Z,68.28
2018-03-21T23:58:20.508Z,67.14
